createdAt,value
2022-11-16T08:54:52.313Z,95396.41
2022-11-16T08:55:53.693Z,95396.75
2022-11-16T08:56:55.156Z,95398.13
2022-11-16T08:57:56.572Z,95384.88
2022-11-16T08:58:59.425Z,95395.78
2022-11-16T09:00:04.275Z,95379.56
2022-11-16T09:01:14.768Z,95392.34
2022-11-16T09:02:16.219Z,95395.97
2022-11-16T09:03:17.613Z,95395.97
2022-11-16T09:04:19.001Z,95391.34
2022-11-16T09:05:23.125Z,95386.59
2022-11-16T09:06:25.865Z,95386.25
2022-11-16T09:07:27.312Z,95379.38
2022-11-16T09:08:28.700Z,95388.91
2022-11-16T09:09:30.108Z,95394.06
2022-11-16T09:10:35.817Z,95384.91
2022-11-16T09:11:37.479Z,95391.22
2022-11-16T09:12:39.124Z,95390.31
2022-11-16T09:13:40.540Z,95395.88
2022-11-16T09:14:42.208Z,95392.09
2022-11-16T09:15:44.949Z,95386.53
2022-11-16T09:16:46.327Z,95387.53
2022-11-16T09:17:47.716Z,95369.59
2022-11-16T09:18:51.099Z,95394.44
2022-11-16T09:19:52.492Z,95391.19
2022-11-16T09:20:57.701Z,95387.84
2022-11-16T09:21:59.121Z,95390.81
2022-11-16T09:23:00.560Z,95392.38
2022-11-16T09:24:03.023Z,95391.13
2022-11-16T09:25:05.137Z,95385.50
2022-11-16T09:26:06.656Z,95382.28
2022-11-16T09:27:08.318Z,95365.59
2022-11-16T09:28:11.073Z,95391.72
2022-11-16T09:29:14.683Z,95388.78
2022-11-16T09:30:17.511Z,95390.28
2022-11-16T09:31:23.148Z,95389.53
2022-11-16T09:32:25.019Z,95394.72
2022-11-16T09:33:28.528Z,95361.63
2022-11-16T09:34:30.108Z,95385.50
2022-11-16T09:35:33.356Z,95380.19
2022-11-16T09:36:38.542Z,95383.53
2022-11-16T09:37:39.946Z,95377.63
2022-11-16T09:39:19.002Z,95374.31
2022-11-16T09:40:06.380Z,95388.47
2022-11-16T09:41:16.700Z,95397.47
2022-11-16T09:42:36.910Z,95388.31
2022-11-16T09:43:53.536Z,95396.81
2022-11-16T09:45:05.131Z,95398.16
2022-11-16T09:46:18.087Z,95401.34
2022-11-16T09:47:25.497Z,95393.16
2022-11-16T09:48:27.730Z,95396.44
2022-11-16T09:49:33.228Z,95398.84
2022-11-16T09:51:01.712Z,95397.31
2022-11-16T09:52:08.349Z,95378.50
2022-11-16T09:53:20.393Z,95403.38
2022-11-16T09:54:30.563Z,95399.97
2022-11-16T09:55:46.707Z,95399.97
2022-11-16T09:56:53.725Z,95405.75
2022-11-16T09:57:59.549Z,95397.03
2022-11-16T09:59:36.270Z,95402.41
2022-11-16T10:00:41.526Z,95405.97
2022-11-16T10:01:49.103Z,95408.38
2022-11-16T10:03:01.246Z,95402.47
2022-11-16T10:04:17.320Z,95375.03
2022-11-16T10:05:28.038Z,95411.31
2022-11-16T10:06:41.651Z,95413.78
2022-11-16T10:07:50.320Z,95415.88
2022-11-16T10:08:56.549Z,95380.84
2022-11-16T10:10:02.370Z,95412.75
2022-11-16T10:11:12.287Z,95410.44
2022-11-16T10:12:37.894Z,95375.81
2022-11-16T10:14:04.190Z,95410.00
2022-11-16T10:15:36.731Z,95409.19
2022-11-16T10:16:48.477Z,95414.53
2022-11-16T10:18:11.761Z,95412.75
2022-11-16T10:19:25.569Z,95405.09
2022-11-16T10:20:45.647Z,95399.94
2022-11-16T10:22:14.783Z,95398.34
2022-11-16T10:23:22.310Z,95403.13
2022-11-16T10:24:50.897Z,95393.72
2022-11-16T10:26:27.089Z,95391.19
2022-11-16T10:27:32.800Z,95393.72
2022-11-16T10:28:53.001Z,95396.94
2022-11-16T10:30:03.823Z,95391.22
2022-11-16T10:31:37.763Z,95393.00
2022-11-16T10:33:10.883Z,95379.47
2022-11-16T10:34:22.774Z,95389.88
2022-11-16T10:35:44.192Z,95390.81
2022-11-16T10:36:46.145Z,95383.97
2022-11-16T10:37:51.897Z,95388.44
2022-11-16T10:38:59.742Z,95385.84
2022-11-16T10:40:15.238Z,95386.28
2022-11-16T10:41:18.966Z,95385.34
2022-11-16T10:42:30.843Z,95379.59
2022-11-16T10:43:33.235Z,95378.09
2022-11-16T10:44:50.248Z,95375.13
2022-11-16T10:46:04.557Z,95361.38
2022-11-16T10:47:53.560Z,95367.91
2022-11-16T10:49:16.717Z,95364.38
2022-11-16T10:50:33.206Z,95367.38
2022-11-16T10:51:34.792Z,95367.03
2022-11-16T10:52:36.148Z,95364.72
2022-11-16T10:53:47.190Z,95359.16
2022-11-16T10:54:48.590Z,95365.78
2022-11-16T10:56:09.659Z,95368.44
2022-11-16T10:57:17.738Z,95358.78
2022-11-16T10:58:19.087Z,95360.31
2022-11-16T10:59:21.367Z,95368.28
2022-11-16T11:00:41.657Z,95355.84
2022-11-16T11:01:51.058Z,95365.91
2022-11-16T11:02:52.392Z,95332.16
2022-11-16T11:03:54.058Z,95359.88
2022-11-16T11:05:02.504Z,95360.47
2022-11-16T11:06:04.328Z,95348.09
2022-11-16T11:07:31.735Z,95356.84
2022-11-16T11:08:33.327Z,95362.19
2022-11-16T11:09:38.828Z,95354.38
2022-11-16T11:10:41.907Z,95355.41
2022-11-16T11:12:16.123Z,95355.59
2022-11-16T11:13:26.957Z,95349.31
2022-11-16T11:14:28.358Z,95355.31
2022-11-16T11:15:29.912Z,95357.75
2022-11-16T11:16:31.660Z,95354.28
2022-11-16T11:17:35.384Z,95353.88
2022-11-16T11:18:36.909Z,95340.75
2022-11-16T11:19:38.321Z,95334.16
2022-11-16T11:20:45.463Z,95351.19
2022-11-16T11:21:47.380Z,95349.44
2022-11-16T11:22:57.865Z,95345.72
2022-11-16T11:24:37.284Z,95348.97
2022-11-16T11:25:34.509Z,95355.09
2022-11-16T11:26:40.324Z,95348.81
2022-11-16T11:27:41.822Z,95337.97
2022-11-16T11:28:53.345Z,95352.56
2022-11-16T11:29:58.597Z,95347.63
2022-11-16T11:31:03.665Z,95334.59
2022-11-16T11:32:08.157Z,95345.53
2022-11-16T11:33:12.646Z,95345.28
2022-11-16T11:34:29.063Z,95315.78
2022-11-16T11:35:32.819Z,95344.06
2022-11-16T11:36:40.402Z,95340.41
2022-11-16T11:37:42.155Z,95347.28
2022-11-16T11:39:12.766Z,95345.53
2022-11-16T11:40:23.972Z,95345.69
2022-11-16T11:41:28.421Z,95329.34
2022-11-16T11:42:29.911Z,95348.34
2022-11-16T11:43:34.241Z,95342.34
2022-11-16T11:44:50.186Z,95324.47
2022-11-16T11:46:03.625Z,95350.94
2022-11-16T11:48:57.146Z,95339.44
2022-11-16T11:50:16.575Z,95327.88
2022-11-16T11:51:26.934Z,95339.09
2022-11-16T11:52:39.108Z,95344.81
2022-11-16T11:53:51.721Z,95347.81
2022-11-16T11:54:56.038Z,95337.75
2022-11-16T11:55:59.675Z,95338.66
2022-11-16T11:57:03.048Z,95340.00
2022-11-16T11:58:06.142Z,95324.41
2022-11-16T11:59:18.522Z,95323.78
2022-11-16T12:00:20.327Z,95330.84
2022-11-16T12:01:37.811Z,95327.19
2022-11-16T12:03:16.698Z,95340.50
2022-11-16T12:04:44.520Z,95333.38
2022-11-16T12:06:05.669Z,95332.09
2022-11-16T12:07:26.831Z,95323.91
2022-11-16T12:08:43.429Z,95335.56
2022-11-16T12:10:09.150Z,95336.69
2022-11-16T12:11:24.846Z,95311.66
2022-11-16T12:12:38.157Z,95335.69
2022-11-16T12:13:59.434Z,95332.53
2022-11-16T12:15:31.141Z,95334.44
2022-11-16T12:16:50.767Z,95322.38
2022-11-16T12:18:02.671Z,95314.31
2022-11-16T12:19:41.818Z,95319.63
2022-11-16T12:21:21.085Z,95321.56
2022-11-16T12:22:25.391Z,95320.97
2022-11-16T12:23:47.883Z,95320.84
2022-11-16T12:24:56.695Z,95317.13
2022-11-16T12:26:21.387Z,95321.91
2022-11-16T12:27:51.797Z,95318.91
2022-11-16T12:29:16.659Z,95320.03
2022-11-16T12:30:21.105Z,95324.09
2022-11-16T12:31:25.511Z,95317.91
2022-11-16T12:32:35.976Z,95317.31
2022-11-16T12:34:01.276Z,95318.19
2022-11-16T12:35:35.068Z,95316.28
2022-11-16T12:36:51.232Z,95314.56
2022-11-16T12:38:14.077Z,95316.84
2022-11-16T12:39:24.316Z,95312.97
2022-11-16T12:40:30.745Z,95318.38
2022-11-16T12:41:44.456Z,95306.44
2022-11-16T12:43:10.280Z,95317.41
2022-11-16T12:44:21.807Z,95301.41
2022-11-16T12:45:41.035Z,95283.72
2022-11-16T12:47:00.757Z,95306.47
2022-11-16T12:48:08.368Z,95310.94
2022-11-16T12:49:18.614Z,95304.28
2022-11-16T12:50:22.876Z,95311.50
2022-11-16T12:51:33.371Z,95309.50
2022-11-16T12:53:08.329Z,95289.41
2022-11-16T12:54:35.925Z,95306.19
2022-11-16T12:55:44.871Z,95301.16
2022-11-16T12:57:18.008Z,95299.66
2022-11-16T12:58:38.716Z,95299.63
2022-11-16T12:59:58.520Z,95296.97
2022-11-16T13:01:15.029Z,95291.47
2022-11-16T13:02:53.470Z,95292.59
2022-11-16T13:04:16.208Z,95296.53
2022-11-16T13:05:44.695Z,95303.56
2022-11-16T13:06:52.248Z,95292.38
2022-11-16T13:08:00.548Z,95295.13
2022-11-16T13:09:10.124Z,95282.28
2022-11-16T13:10:19.792Z,95293.13
2022-11-16T13:11:35.735Z,95291.59
2022-11-16T13:12:38.649Z,95293.84
2022-11-16T13:13:42.160Z,95288.25
2022-11-16T13:14:48.002Z,95292.13
2022-11-16T13:15:50.821Z,95253.63
2022-11-16T13:16:53.652Z,95290.66
2022-11-16T13:17:59.125Z,95293.56
2022-11-16T13:19:03.954Z,95284.91
2022-11-16T13:20:20.336Z,95289.56
2022-11-16T13:21:34.761Z,95287.22
2022-11-16T13:22:38.855Z,95287.97
2022-11-16T13:23:55.498Z,95292.91
2022-11-16T13:25:27.470Z,95287.91
2022-11-16T13:26:43.347Z,95289.66
2022-11-16T13:27:57.406Z,95280.94
2022-11-16T13:29:04.588Z,95282.38
2022-11-16T13:30:19.789Z,95276.41
2022-11-16T13:32:02.720Z,95283.38
2022-11-16T13:33:30.303Z,95289.47
2022-11-16T13:34:33.812Z,95288.38
2022-11-16T13:35:38.691Z,95290.94
2022-11-16T13:36:45.270Z,95287.03
2022-11-16T13:37:51.969Z,95290.38
2022-11-16T13:38:56.835Z,95286.00
2022-11-16T13:39:58.531Z,95287.38
2022-11-16T13:41:30.151Z,95280.03
2022-11-16T13:42:34.475Z,95280.63
2022-11-16T13:43:35.885Z,95272.38
2022-11-16T13:44:37.498Z,95275.13
2022-11-16T13:45:42.788Z,95272.59
2022-11-16T13:46:55.776Z,95277.69
2022-11-16T13:47:59.067Z,95266.66
2022-11-16T13:49:00.459Z,95277.00
2022-11-16T13:50:10.315Z,95275.34
2022-11-16T13:51:25.477Z,95273.84
2022-11-16T13:53:31.858Z,95275.25
2022-11-16T13:55:32.002Z,95258.69
2022-11-16T13:56:48.816Z,95255.56
2022-11-16T13:57:53.360Z,95260.13
2022-11-16T13:58:58.164Z,95259.31
2022-11-16T14:00:02.947Z,95268.97
2022-11-16T14:01:10.609Z,95258.84
2022-11-16T14:02:36.583Z,95258.09
2022-11-16T14:03:40.012Z,95264.19
2022-11-16T14:04:52.975Z,95262.81
2022-11-16T14:05:54.738Z,95259.47
2022-11-16T14:06:58.916Z,95259.56
2022-11-16T14:08:20.291Z,95258.94
2022-11-16T14:09:54.071Z,95255.69
2022-11-16T14:10:59.155Z,95256.38
2022-11-16T14:12:43.488Z,95260.88
2022-11-16T14:13:48.313Z,95258.13
2022-11-16T14:15:04.420Z,95249.19
2022-11-16T14:16:15.012Z,95252.00
2022-11-16T14:17:55.084Z,95248.75
2022-11-16T14:19:00.148Z,95240.03
2022-11-16T14:20:01.860Z,95242.78
2022-11-16T14:21:24.903Z,95243.69
2022-11-16T14:22:40.424Z,95239.03
2022-11-16T14:24:13.339Z,95232.63
2022-11-16T14:25:34.612Z,95236.16
2022-11-16T14:26:57.663Z,95231.06
2022-11-16T14:28:40.916Z,95236.72
2022-11-16T14:30:05.791Z,95232.53
2022-11-16T14:31:28.129Z,95231.16
2022-11-16T14:32:46.706Z,95225.47
2022-11-16T14:33:54.528Z,95181.88
2022-11-16T14:34:58.275Z,95225.00
2022-11-16T14:36:01.067Z,95221.66
2022-11-16T14:37:03.343Z,95227.88
2022-11-16T14:38:07.660Z,95221.09
2022-11-16T14:39:14.598Z,95215.56
2022-11-16T14:40:18.430Z,95221.25
2022-11-16T14:41:22.873Z,95215.28
2022-11-16T14:42:29.888Z,95220.69
2022-11-16T14:43:42.470Z,95215.66
2022-11-16T14:44:44.563Z,95205.19
2022-11-16T14:45:52.252Z,95221.09
2022-11-16T14:46:54.125Z,95215.22
2022-11-16T14:48:18.905Z,95210.47
2022-11-16T14:49:21.481Z,95217.91
2022-11-16T14:50:24.624Z,95221.78
2022-11-16T14:51:31.785Z,95228.97
2022-11-16T14:52:47.660Z,95215.16
2022-11-16T14:53:53.092Z,95224.28
2022-11-16T14:55:00.148Z,95225.09
2022-11-16T14:56:13.310Z,95223.63
2022-11-16T14:57:22.998Z,95236.53
2022-11-16T14:58:24.399Z,95236.59
2022-11-16T14:59:26.367Z,95233.97
2022-11-16T15:00:30.186Z,95228.56
2022-11-16T15:01:35.608Z,95193.50
2022-11-16T15:02:38.235Z,95232.88
2022-11-16T15:04:11.284Z,95231.97
2022-11-16T15:05:21.547Z,95234.81
2022-11-16T15:06:25.955Z,95242.16
2022-11-16T15:07:29.858Z,95237.88
2022-11-16T15:08:54.405Z,95223.09
2022-11-16T15:10:02.066Z,95235.09
2022-11-16T15:11:07.173Z,95236.59
2022-11-16T15:12:35.674Z,95243.63
2022-11-16T15:13:37.614Z,95237.03
2022-11-16T15:14:48.470Z,95241.03
2022-11-16T15:16:07.119Z,95230.81
2022-11-16T15:17:09.767Z,95233.38
2022-11-16T15:18:18.304Z,95228.56
2022-11-16T15:19:19.991Z,95229.25
2022-11-16T15:20:24.360Z,95223.41
2022-11-16T15:21:26.733Z,95228.53
2022-11-16T15:22:39.817Z,95227.53
2022-11-16T15:24:02.069Z,95213.75
2022-11-16T15:25:50.543Z,95220.13
2022-11-16T15:26:52.635Z,95215.22
2022-11-16T15:27:55.956Z,95222.13
2022-11-16T15:28:57.371Z,95214.91
2022-11-16T15:30:02.288Z,95217.53
2022-11-16T15:31:05.888Z,95220.56
2022-11-16T15:32:15.388Z,95206.47
2022-11-16T15:33:19.942Z,95203.56
2022-11-16T15:34:25.769Z,95213.06
2022-11-16T15:35:32.803Z,95203.66
2022-11-16T15:36:40.998Z,95200.31
2022-11-16T15:37:42.365Z,95202.28
2022-11-16T15:38:43.892Z,95201.13
2022-11-16T15:39:45.360Z,95195.59
2022-11-16T15:40:51.846Z,95201.19
2022-11-16T15:41:58.778Z,95202.59
2022-11-16T15:43:05.884Z,95199.78
2022-11-16T15:44:14.655Z,95211.59
2022-11-16T15:45:25.598Z,95224.72
2022-11-16T15:46:29.319Z,95229.00
2022-11-16T15:47:30.813Z,95226.50
2022-11-16T15:48:33.409Z,95224.00
2022-11-16T15:49:40.621Z,95198.16
2022-11-16T15:50:57.878Z,95223.44
2022-11-16T15:52:01.854Z,95209.03
2022-11-16T15:53:03.329Z,95209.31
2022-11-16T15:54:24.483Z,95200.97
2022-11-16T15:55:35.551Z,95182.56
2022-11-16T15:56:41.706Z,95189.38
2022-11-16T15:57:46.561Z,95187.59
2022-11-16T15:58:49.359Z,95190.00
2022-11-16T15:59:56.902Z,95189.78
2022-11-16T16:00:59.315Z,95184.75
2022-11-16T16:02:01.062Z,95188.81
2022-11-16T16:03:07.717Z,95189.78
2022-11-16T16:04:15.270Z,95147.66
2022-11-16T16:05:23.928Z,95178.06
2022-11-16T16:06:46.760Z,95183.66
2022-11-16T16:07:48.624Z,95188.00
2022-11-16T16:09:04.112Z,95190.78
2022-11-16T16:10:22.881Z,95189.94
2022-11-16T16:11:26.949Z,95192.56
2022-11-16T16:12:29.179Z,95192.28
2022-11-16T16:13:33.902Z,95195.94
2022-11-16T16:14:35.585Z,95185.44
2022-11-16T16:15:40.099Z,95185.59
2022-11-16T16:16:41.483Z,95164.53
2022-11-16T16:17:46.093Z,95190.25
2022-11-16T16:18:47.723Z,95194.44
2022-11-16T16:19:59.433Z,95191.19
2022-11-16T16:21:02.873Z,95178.09
2022-11-16T16:22:12.220Z,95195.31
2022-11-16T16:23:18.019Z,95197.16
2022-11-16T16:24:34.681Z,95193.34
2022-11-16T16:25:36.996Z,95198.44
2022-11-16T16:26:38.644Z,95187.84
2022-11-16T16:27:44.263Z,95193.63
2022-11-16T16:28:46.151Z,95176.34
2022-11-16T16:29:49.602Z,95192.72
2022-11-16T16:30:51.192Z,95188.53
2022-11-16T16:31:52.557Z,95196.03
2022-11-16T16:32:57.845Z,95192.53
2022-11-16T16:33:59.454Z,95189.44
2022-11-16T16:35:03.095Z,95166.78
2022-11-16T16:36:04.943Z,95180.88
2022-11-16T16:37:09.140Z,95184.06
2022-11-16T16:38:13.744Z,95190.13
2022-11-16T16:39:15.115Z,95185.72
2022-11-16T16:40:17.624Z,95180.78
2022-11-16T16:41:24.380Z,95186.94
2022-11-16T16:42:26.625Z,95180.53
2022-11-16T16:43:28.706Z,95174.66
2022-11-16T16:44:30.040Z,95174.81
2022-11-16T16:45:44.614Z,95182.28
2022-11-16T16:46:45.947Z,95159.50
2022-11-16T16:47:47.812Z,95178.75
2022-11-16T16:48:49.128Z,95167.53
2022-11-16T16:49:50.579Z,95157.19
2022-11-16T16:50:55.507Z,95165.53
2022-11-16T16:51:56.907Z,95159.25
2022-11-16T16:52:58.299Z,95147.63
2022-11-16T16:54:00.063Z,95157.94
2022-11-16T16:55:01.434Z,95155.63
2022-11-16T16:56:03.246Z,95156.81
2022-11-16T16:57:04.880Z,95155.78
2022-11-16T16:58:06.263Z,95161.47
2022-11-16T16:59:07.858Z,95157.28
2022-11-16T17:00:12.629Z,95166.88
2022-11-16T17:01:14.092Z,95165.34
2022-11-16T17:02:16.279Z,95163.84
2022-11-16T17:03:20.500Z,95156.50
2022-11-16T17:04:21.890Z,95165.09
2022-11-16T17:05:23.285Z,95150.47
2022-11-16T17:06:24.770Z,95135.97
2022-11-16T17:07:26.358Z,95150.97
2022-11-16T17:08:32.302Z,95152.84
2022-11-16T17:09:33.662Z,95156.91
2022-11-16T17:10:38.204Z,95160.84
2022-11-16T17:11:39.841Z,95161.84
2022-11-16T17:12:41.384Z,95159.91
2022-11-16T17:13:46.771Z,95150.59
2022-11-16T17:14:51.923Z,95158.22
2022-11-16T17:15:53.301Z,95155.78
2022-11-16T17:16:54.784Z,95161.00
2022-11-16T17:17:58.123Z,95143.34
2022-11-16T17:18:59.704Z,95158.50
2022-11-16T17:20:01.064Z,95145.88
2022-11-16T17:21:07.057Z,95144.19
2022-11-16T17:22:08.564Z,95158.59
2022-11-16T17:23:09.943Z,95150.06
2022-11-16T17:24:11.669Z,95129.97
2022-11-16T17:25:13.231Z,95146.25
2022-11-16T17:26:14.642Z,95121.75
2022-11-16T17:27:16.052Z,95145.22
2022-11-16T17:28:17.538Z,95144.91
2022-11-16T17:29:18.908Z,95154.25
2022-11-16T17:30:20.292Z,95149.97
2022-11-16T17:31:21.705Z,95155.34
2022-11-16T17:32:23.073Z,95150.88
2022-11-16T17:33:24.500Z,95146.97
2022-11-16T17:34:25.864Z,95154.78
2022-11-16T17:35:27.228Z,95155.25
2022-11-16T17:36:28.562Z,95132.94
2022-11-16T17:37:29.913Z,95141.28
2022-11-16T17:38:34.920Z,95133.78
2022-11-16T17:39:36.275Z,95142.16
2022-11-16T17:40:40.934Z,95146.59
2022-11-16T17:41:42.443Z,95150.78
2022-11-16T17:42:43.795Z,95135.38
2022-11-16T17:43:46.293Z,95138.63
2022-11-16T17:44:47.639Z,95128.47
2022-11-16T17:45:51.835Z,95141.03
2022-11-16T17:46:53.200Z,95141.84
2022-11-16T17:47:54.558Z,95136.56
2022-11-16T17:48:56.319Z,95141.56
2022-11-16T17:49:57.690Z,95137.41
2022-11-16T17:50:59.121Z,95135.66
2022-11-16T17:52:01.601Z,95138.16
2022-11-16T17:53:05.983Z,95133.88
2022-11-16T17:54:07.727Z,95131.91
2022-11-16T17:55:09.204Z,95137.78
2022-11-16T17:56:12.742Z,95131.06
2022-11-16T17:57:14.294Z,95124.47
